Time;durP1;ratioP1;P1;durP2;ratioP2;P2;SDS_P1;SDS_P2;PMS_P1;PMS_P2;Temp;Humidity;BMP_temperature;BMP_pressure;BME280_temperature;BME280_humidity;BME280_pressure;Samples;Min_cycle;Max_cycle;Signal;HPM_P1;HPM_P2
2023/10/21 00:02:00;;;;;;;0.10;0.10;;;;;;;;;;5031396;28;20044;-78
2023/10/21 00:04:46;;;;;;;0.10;0.10;;;;;;;;;;5030315;28;20033;-78
2023/10/21 00:07:32;;;;;;;0.10;0.10;;;;;;;;;;5033463;28;20036;-78
2023/10/21 00:10:18;;;;;;;0.10;0.10;;;;;;;;;;5031738;28;20037;-78
2023/10/21 00:13:03;;;;;;;0.10;0.10;;;;;;;;;;5027888;28;20037;-78
2023/10/21 00:15:49;;;;;;;0.10;0.10;;;;;;;;;;5034998;28;20048;-78
2023/10/21 00:18:35;;;;;;;0.10;0.10;;;;;;;;;;5028973;28;20068;-78
2023/10/21 00:21:20;;;;;;;0.20;0.20;;;;;;;;;;5030941;28;20028;-78
2023/10/21 00:24:06;;;;;;;0.10;0.10;;;;;;;;;;5031971;28;20036;-78
2023/10/21 00:26:52;;;;;;;0.10;0.10;;;;;;;;;;5032597;28;20036;-78
2023/10/21 00:29:38;;;;;;;0.10;0.10;;;;;;;;;;5030405;28;20043;-78
2023/10/21 00:32:25;;;;;;;0.10;0.10;;;;;;;;;;5031311;28;20589;-78
2023/10/21 00:35:10;;;;;;;0.10;0.10;;;;;;;;;;5016218;28;20041;-78
2023/10/21 00:37:56;;;;;;;0.10;0.10;;;;;;;;;;5019860;28;20028;-78
2023/10/21 00:40:53;;;;;;;0.10;0.10;;;;;;;;;;5028671;28;20032;-78
2023/10/21 00:43:39;;;;;;;0.10;0.10;;;;;;;;;;5011374;28;20037;-78
2023/10/21 00:46:28;;;;;;;0.10;0.10;;;;;;;;;;5031342;28;20121;-78
2023/10/21 00:49:13;;;;;;;0.10;0.10;;;;;;;;;;5028576;28;20071;-78
2023/10/21 00:52:00;;;;;;;0.10;0.10;;;;;;;;;;5029998;28;20052;-78
2023/10/21 00:54:46;;;;;;;0.10;0.10;;;;;;;;;;5030302;28;20462;-78
2023/10/21 00:57:31;;;;;;;0.10;0.10;;;;;;;;;;5030154;28;20041;-77
2023/10/21 01:00:17;;;;;;;0.10;0.10;;;;;;;;;;5028324;28;20036;-77
2023/10/21 01:03:03;;;;;;;0.10;0.10;;;;;;;;;;5032784;28;20036;-76
2023/10/21 01:05:49;;;;;;;0.10;0.10;;;;;;;;;;5033166;28;20403;-76
2023/10/21 01:08:42;;;;;;;0.10;0.10;;;;;;;;;;5028965;28;20451;-77
2023/10/21 01:11:27;;;;;;;0.10;0.10;;;;;;;;;;5029188;28;20531;-76
2023/10/21 01:14:13;;;;;;;0.15;0.15;;;;;;;;;;5016288;28;20798;-77
2023/10/21 01:16:59;;;;;;;0.10;0.10;;;;;;;;;;5027538;28;20393;-76
2023/10/21 01:19:44;;;;;;;0.10;0.10;;;;;;;;;;5016927;28;20029;-77
2023/10/21 01:22:30;;;;;;;0.10;0.10;;;;;;;;;;5030450;28;20897;-76
2023/10/21 01:25:16;;;;;;;0.10;0.10;;;;;;;;;;5020481;28;20123;-77
2023/10/21 01:28:02;;;;;;;0.10;0.10;;;;;;;;;;5031545;28;20037;-76
2023/10/21 01:30:50;;;;;;;0.10;0.10;;;;;;;;;;5014585;28;20079;-77
2023/10/21 01:33:36;;;;;;;0.20;0.20;;;;;;;;;;5018046;28;20466;-77
2023/10/21 01:36:21;;;;;;;0.10;0.10;;;;;;;;;;5032670;28;20041;-78
2023/10/21 01:39:10;;;;;;;0.10;0.10;;;;;;;;;;5017953;28;20029;-78
2023/10/21 01:41:55;;;;;;;0.10;0.10;;;;;;;;;;5027752;28;20041;-78
2023/10/21 01:44:42;;;;;;;0.13;0.13;;;;;;;;;;5030165;28;20549;-77
2023/10/21 01:47:29;;;;;;;0.10;0.10;;;;;;;;;;5019327;28;20033;-78
2023/10/21 01:50:15;;;;;;;0.10;0.10;;;;;;;;;;5030873;28;20483;-77
2023/10/21 01:53:01;;;;;;;0.10;0.10;;;;;;;;;;5029367;28;20214;-77
2023/10/21 01:55:47;;;;;;;0.10;0.10;;;;;;;;;;5024157;28;20039;-76
2023/10/21 01:58:32;;;;;;;0.10;0.10;;;;;;;;;;5016375;28;20140;-77
2023/10/21 02:01:18;;;;;;;0.10;0.10;;;;;;;;;;5028401;28;20068;-77
2023/10/21 02:04:05;;;;;;;0.10;0.10;;;;;;;;;;5016483;28;20029;-77
2023/10/21 02:06:50;;;;;;;0.10;0.10;;;;;;;;;;5029178;28;20743;-76
2023/10/21 02:09:37;;;;;;;0.10;0.10;;;;;;;;;;5026436;28;20698;-76
2023/10/21 02:12:22;;;;;;;0.10;0.10;;;;;;;;;;5032079;28;20582;-77
2023/10/21 02:15:11;;;;;;;0.10;0.10;;;;;;;;;;5016951;28;20038;-76
2023/10/21 02:17:57;;;;;;;0.10;0.10;;;;;;;;;;5027738;28;20025;-76
2023/10/21 02:20:43;;;;;;;0.10;0.10;;;;;;;;;;5031031;28;20401;-77
2023/10/21 02:23:29;;;;;;;0.10;0.10;;;;;;;;;;5028064;28;20037;-77
2023/10/21 02:26:14;;;;;;;0.10;0.10;;;;;;;;;;5017238;28;20040;-77
2023/10/21 02:29:00;;;;;;;0.10;0.10;;;;;;;;;;5015484;28;20515;-77
2023/10/21 02:31:46;;;;;;;0.10;0.10;;;;;;;;;;5016202;28;20041;-78
2023/10/21 02:34:32;;;;;;;0.10;0.10;;;;;;;;;;5031051;28;20327;-77
2023/10/21 02:37:19;;;;;;;0.10;0.10;;;;;;;;;;5016431;28;20039;-78
2023/10/21 02:40:05;;;;;;;0.17;0.17;;;;;;;;;;5026811;28;20040;-77
2023/10/21 02:42:50;;;;;;;0.10;0.10;;;;;;;;;;5028401;28;20048;-77
2023/10/21 02:45:36;;;;;;;0.10;0.10;;;;;;;;;;5027854;28;20415;-77
2023/10/21 02:48:22;;;;;;;0.10;0.10;;;;;;;;;;5027085;28;20037;-77
2023/10/21 02:51:15;;;;;;;0.20;0.20;;;;;;;;;;5028904;28;20036;-77
2023/10/21 02:54:00;;;;;;;0.10;0.10;;;;;;;;;;5030237;28;20214;-77
2023/10/21 02:56:46;;;;;;;0.10;0.10;;;;;;;;;;5029481;28;20033;-77
2023/10/21 02:59:33;;;;;;;0.17;0.17;;;;;;;;;;5027211;28;20041;-77
2023/10/21 03:02:19;;;;;;;0.10;0.10;;;;;;;;;;5029709;28;20033;-77
2023/10/21 03:05:05;;;;;;;0.10;0.10;;;;;;;;;;5027430;28;20041;-77
2023/10/21 03:07:51;;;;;;;0.10;0.10;;;;;;;;;;5018650;28;20044;-76
2023/10/21 03:10:37;;;;;;;0.10;0.10;;;;;;;;;;5030939;28;20552;-76
2023/10/21 03:13:23;;;;;;;0.10;0.10;;;;;;;;;;5018624;28;20040;-76
2023/10/21 03:16:10;;;;;;;0.10;0.10;;;;;;;;;;5015584;28;20309;-76
2023/10/21 03:18:56;;;;;;;0.10;0.10;;;;;;;;;;5029023;28;20032;-76
2023/10/21 03:21:41;;;;;;;0.10;0.10;;;;;;;;;;5022742;28;20119;-77
2023/10/21 03:24:27;;;;;;;0.10;0.10;;;;;;;;;;5027304;28;20039;-77
2023/10/21 03:27:13;;;;;;;0.10;0.10;;;;;;;;;;5026026;28;20517;-77
2023/10/21 03:29:59;;;;;;;0.10;0.10;;;;;;;;;;5017524;28;20037;-77
2023/10/21 03:32:44;;;;;;;0.10;0.10;;;;;;;;;;5019613;28;20426;-77
2023/10/21 03:35:31;;;;;;;0.10;0.10;;;;;;;;;;5026197;28;20427;-77
2023/10/21 03:38:17;;;;;;;0.10;0.10;;;;;;;;;;5032764;28;20033;-78
2023/10/21 03:41:03;;;;;;;0.10;0.10;;;;;;;;;;5019476;28;20029;-77
2023/10/21 03:43:50;;;;;;;0.10;0.10;;;;;;;;;;5029258;28;20094;-78
2023/10/21 03:46:36;;;;;;;0.10;0.10;;;;;;;;;;5021492;28;20048;-78
2023/10/21 03:49:22;;;;;;;0.10;0.10;;;;;;;;;;5030670;28;20036;-78
2023/10/21 03:52:07;;;;;;;0.10;0.10;;;;;;;;;;5035141;28;20619;-78
2023/10/21 03:54:53;;;;;;;0.10;0.10;;;;;;;;;;5029010;28;20025;-78
2023/10/21 03:57:38;;;;;;;0.10;0.10;;;;;;;;;;5034473;28;20520;-78
2023/10/21 04:00:24;;;;;;;0.10;0.10;;;;;;;;;;5030318;28;20120;-78
2023/10/21 04:03:10;;;;;;;0.17;0.17;;;;;;;;;;5030265;28;20041;-78
2023/10/21 04:05:56;;;;;;;0.10;0.10;;;;;;;;;;5033648;28;20045;-78
2023/10/21 04:08:42;;;;;;;0.10;0.10;;;;;;;;;;5033652;28;20172;-78
2023/10/21 04:11:27;;;;;;;0.10;0.10;;;;;;;;;;5033678;28;20034;-78
2023/10/21 04:14:14;;;;;;;0.10;0.10;;;;;;;;;;5033665;28;20775;-78
2023/10/21 04:17:00;;;;;;;0.10;0.10;;;;;;;;;;5032482;28;20044;-78
2023/10/21 04:19:45;;;;;;;0.10;0.10;;;;;;;;;;5031916;28;20112;-78
2023/10/21 04:22:31;;;;;;;0.10;0.10;;;;;;;;;;5031906;28;20794;-78
2023/10/21 04:25:17;;;;;;;0.10;0.10;;;;;;;;;;5031018;28;20527;-78
2023/10/21 04:28:02;;;;;;;0.10;0.10;;;;;;;;;;5035812;28;20532;-77
2023/10/21 04:30:48;;;;;;;0.10;0.10;;;;;;;;;;5031232;28;20141;-78
2023/10/21 04:33:34;;;;;;;0.13;0.13;;;;;;;;;;5019037;28;20032;-77
2023/10/21 04:36:20;;;;;;;0.10;0.10;;;;;;;;;;5033430;28;20320;-78
2023/10/21 04:39:07;;;;;;;0.13;0.13;;;;;;;;;;5033019;28;20036;-78
2023/10/21 04:41:52;;;;;;;0.10;0.10;;;;;;;;;;5033440;28;20032;-78
2023/10/21 04:44:38;;;;;;;0.20;0.20;;;;;;;;;;5029725;28;20034;-78
2023/10/21 04:47:24;;;;;;;0.10;0.10;;;;;;;;;;5029759;28;20052;-78
2023/10/21 04:50:09;;;;;;;0.10;0.10;;;;;;;;;;5030155;28;20734;-78
2023/10/21 04:52:55;;;;;;;0.10;0.10;;;;;;;;;;5034208;28;20107;-78
2023/10/21 04:55:41;;;;;;;0.10;0.10;;;;;;;;;;5029901;28;20038;-78
2023/10/21 04:58:26;;;;;;;0.10;0.10;;;;;;;;;;5034582;28;20039;-78
2023/10/21 05:01:16;;;;;;;0.10;0.10;;;;;;;;;;5030889;28;20519;-78
2023/10/21 05:04:01;;;;;;;0.10;0.10;;;;;;;;;;5030252;28;20090;-78
2023/10/21 05:06:47;;;;;;;0.20;0.20;;;;;;;;;;5033451;28;20037;-78
2023/10/21 05:09:33;;;;;;;0.10;0.10;;;;;;;;;;5032698;28;20362;-78
2023/10/21 05:12:19;;;;;;;0.10;0.10;;;;;;;;;;5033844;28;20304;-78
2023/10/21 05:15:05;;;;;;;0.10;0.10;;;;;;;;;;5033867;28;20045;-78
2023/10/21 05:17:51;;;;;;;0.10;0.10;;;;;;;;;;5032535;28;20167;-78
2023/10/21 05:20:37;;;;;;;0.10;0.10;;;;;;;;;;5031769;28;20033;-78
2023/10/21 05:23:23;;;;;;;0.10;0.10;;;;;;;;;;5034928;28;20040;-78
2023/10/21 05:26:11;;;;;;;0.10;0.10;;;;;;;;;;5031739;28;20057;-78
2023/10/21 05:28:58;;;;;;;0.10;0.10;;;;;;;;;;5019516;28;20116;-78
2023/10/21 05:31:43;;;;;;;0.10;0.10;;;;;;;;;;5029042;28;20068;-78
2023/10/21 05:34:29;;;;;;;0.10;0.10;;;;;;;;;;5033614;28;20049;-78
2023/10/21 05:37:15;;;;;;;0.10;0.10;;;;;;;;;;5031704;28;20577;-78
2023/10/21 05:40:02;;;;;;;0.20;0.20;;;;;;;;;;5030848;28;20053;-77
2023/10/21 05:42:48;;;;;;;0.10;0.10;;;;;;;;;;5032669;28;20037;-77
2023/10/21 05:45:34;;;;;;;0.10;0.10;;;;;;;;;;5019563;28;20048;-77
2023/10/21 05:48:20;;;;;;;0.10;0.10;;;;;;;;;;5031363;28;20421;-77
2023/10/21 05:51:06;;;;;;;0.10;0.10;;;;;;;;;;5032852;28;20032;-77
2023/10/21 05:53:51;;;;;;;0.10;0.10;;;;;;;;;;5030446;28;20531;-77
2023/10/21 05:56:37;;;;;;;0.10;0.10;;;;;;;;;;5033044;28;20032;-77
2023/10/21 05:59:23;;;;;;;0.10;0.10;;;;;;;;;;5028874;28;20335;-77
2023/10/21 06:02:09;;;;;;;0.10;0.10;;;;;;;;;;5029609;28;20040;-78
2023/10/21 06:04:55;;;;;;;0.10;0.10;;;;;;;;;;5028804;28;20083;-78
2023/10/21 06:07:41;;;;;;;0.10;0.10;;;;;;;;;;5031361;28;20407;-77
2023/10/21 06:10:30;;;;;;;0.10;0.10;;;;;;;;;;5031948;28;20419;-78
2023/10/21 06:13:15;;;;;;;0.10;0.10;;;;;;;;;;5031516;28;20040;-77
2023/10/21 06:16:04;;;;;;;0.20;0.20;;;;;;;;;;5029340;28;20341;-77
2023/10/21 06:18:49;;;;;;;0.20;0.20;;;;;;;;;;5011418;28;20126;-78
2023/10/21 06:21:36;;;;;;;0.10;0.10;;;;;;;;;;5031870;28;20089;-78
2023/10/21 06:24:21;;;;;;;0.10;0.10;;;;;;;;;;5019517;28;20040;-77
2023/10/21 06:27:07;;;;;;;0.10;0.10;;;;;;;;;;5031036;28;20029;-77
2023/10/21 06:29:53;;;;;;;0.10;0.10;;;;;;;;;;5032289;28;20047;-77
2023/10/21 06:32:38;;;;;;;0.20;0.20;;;;;;;;;;5020537;28;20103;-77
2023/10/21 06:35:24;;;;;;;0.10;0.10;;;;;;;;;;5027788;28;20079;-77
2023/10/21 06:38:10;;;;;;;0.10;0.10;;;;;;;;;;5029299;28;20119;-78
2023/10/21 06:40:56;;;;;;;0.10;0.10;;;;;;;;;;5030643;28;20037;-78
2023/10/21 06:43:41;;;;;;;0.10;0.10;;;;;;;;;;5033639;28;20438;-78
2023/10/21 06:46:27;;;;;;;0.10;0.10;;;;;;;;;;5031254;28;20021;-78
2023/10/21 06:49:13;;;;;;;0.10;0.10;;;;;;;;;;5029156;28;20048;-78
2023/10/21 06:51:59;;;;;;;0.10;0.10;;;;;;;;;;5032300;28;20485;-78
2023/10/21 06:54:44;;;;;;;0.20;0.20;;;;;;;;;;5030081;28;20052;-78
2023/10/21 06:57:30;;;;;;;0.10;0.10;;;;;;;;;;5032022;28;20232;-78
2023/10/21 07:00:16;;;;;;;0.17;0.17;;;;;;;;;;5029796;28;20464;-78
2023/10/21 07:03:02;;;;;;;0.20;0.20;;;;;;;;;;5032797;28;20103;-78
2023/10/21 07:05:48;;;;;;;0.10;0.10;;;;;;;;;;5030960;28;20048;-78
2023/10/21 07:08:34;;;;;;;0.10;0.10;;;;;;;;;;5027848;28;20041;-78
2023/10/21 07:11:19;;;;;;;0.10;0.10;;;;;;;;;;5033768;28;20041;-78
2023/10/21 07:14:05;;;;;;;0.15;0.15;;;;;;;;;;5033847;28;20128;-78
2023/10/21 07:16:51;;;;;;;0.10;0.10;;;;;;;;;;5032247;28;20056;-78
2023/10/21 07:19:37;;;;;;;0.20;0.20;;;;;;;;;;5034660;28;20037;-78
2023/10/21 07:22:22;;;;;;;0.10;0.10;;;;;;;;;;5034891;28;20103;-78
2023/10/21 07:25:08;;;;;;;0.10;0.10;;;;;;;;;;5035245;28;20112;-78
2023/10/21 07:27:54;;;;;;;0.10;0.10;;;;;;;;;;5031926;28;20533;-78
2023/10/21 07:30:40;;;;;;;0.10;0.10;;;;;;;;;;5031955;28;20424;-78
2023/10/21 07:33:26;;;;;;;0.10;0.10;;;;;;;;;;5035083;28;20566;-78
2023/10/21 07:36:12;;;;;;;0.10;0.10;;;;;;;;;;5032850;28;20415;-78
2023/10/21 07:38:57;;;;;;;0.10;0.10;;;;;;;;;;5030539;28;20111;-77
2023/10/21 07:41:44;;;;;;;0.15;0.15;;;;;;;;;;5032094;28;20036;-78
2023/10/21 07:44:29;;;;;;;0.20;0.20;;;;;;;;;;5033121;28;20071;-77
2023/10/21 07:47:15;;;;;;;0.10;0.10;;;;;;;;;;5034673;28;20381;-78
2023/10/21 07:50:06;;;;;;;0.10;0.10;;;;;;;;;;5035338;28;20271;-77
2023/10/21 07:52:53;;;;;;;0.20;0.20;;;;;;;;;;5035024;28;20378;-77
2023/10/21 07:55:39;;;;;;;0.10;0.10;;;;;;;;;;5035455;28;20499;-77
2023/10/21 07:58:24;;;;;;;0.10;0.10;;;;;;;;;;5033690;28;20884;-78
2023/10/21 08:01:10;;;;;;;0.10;0.10;;;;;;;;;;5032566;28;20137;-77
2023/10/21 08:03:56;;;;;;;0.10;0.10;;;;;;;;;;5031524;28;20047;-79
2023/10/21 08:06:44;;;;;;;0.20;0.20;;;;;;;;;;5032261;28;20041;-77
2023/10/21 08:09:29;;;;;;;0.10;0.10;;;;;;;;;;5031775;28;20091;-78
2023/10/21 08:12:15;;;;;;;0.10;0.10;;;;;;;;;;5032104;28;20036;-78
2023/10/21 08:15:04;;;;;;;0.20;0.20;;;;;;;;;;5033293;28;20151;-78
2023/10/21 08:17:50;;;;;;;0.10;0.10;;;;;;;;;;5033998;28;20463;-78
2023/10/21 08:20:37;;;;;;;0.10;0.10;;;;;;;;;;5034694;28;20413;-78
2023/10/21 08:23:22;;;;;;;0.10;0.10;;;;;;;;;;5029313;28;20083;-77
2023/10/21 08:26:08;;;;;;;0.20;0.20;;;;;;;;;;5034109;28;20028;-78
2023/10/21 08:28:54;;;;;;;0.13;0.13;;;;;;;;;;5032031;28;20434;-78
2023/10/21 08:31:40;;;;;;;0.20;0.20;;;;;;;;;;5030234;28;20404;-78
2023/10/21 08:34:26;;;;;;;0.10;0.10;;;;;;;;;;5026376;28;20531;-77
2023/10/21 08:37:11;;;;;;;0.10;0.10;;;;;;;;;;5035091;28;20257;-79
2023/10/21 08:39:57;;;;;;;0.13;0.13;;;;;;;;;;5034129;28;20037;-78
2023/10/21 08:42:43;;;;;;;0.17;0.17;;;;;;;;;;5034495;28;20030;-79
2023/10/21 08:45:30;;;;;;;0.10;0.10;;;;;;;;;;5033432;28;20551;-78
2023/10/21 08:48:17;;;;;;;0.10;0.10;;;;;;;;;;5035970;28;20024;-78
2023/10/21 08:51:04;;;;;;;0.20;0.20;;;;;;;;;;5034535;28;20040;-78
2023/10/21 08:53:52;;;;;;;0.10;0.10;;;;;;;;;;5032486;28;20233;-78
2023/10/21 08:56:38;;;;;;;0.15;0.15;;;;;;;;;;5034558;28;20099;-78
2023/10/21 08:59:24;;;;;;;0.15;0.15;;;;;;;;;;5035721;28;20658;-78
2023/10/21 09:02:09;;;;;;;0.20;0.20;;;;;;;;;;5035178;28;20029;-78
2023/10/21 09:04:55;;;;;;;0.10;0.10;;;;;;;;;;5033096;28;20492;-78
2023/10/21 09:07:45;;;;;;;0.20;0.20;;;;;;;;;;5035795;28;20128;-78
2023/10/21 09:10:32;;;;;;;0.20;0.20;;;;;;;;;;5031408;28;20118;-77
2023/10/21 09:13:18;;;;;;;0.10;0.10;;;;;;;;;;5032845;28;20099;-78
2023/10/21 09:16:20;;;;;;;0.10;0.10;;;;;;;;;;5033242;28;20102;-78
2023/10/21 09:19:07;;;;;;;0.10;0.10;;;;;;;;;;5032372;28;20471;-78
2023/10/21 09:21:53;;;;;;;0.17;0.17;;;;;;;;;;5034631;28;20543;-78
2023/10/21 09:24:39;;;;;;;0.17;0.17;;;;;;;;;;5033968;28;20052;-79
2023/10/21 09:27:24;;;;;;;0.10;0.10;;;;;;;;;;5031859;28;20083;-78
2023/10/21 09:30:14;;;;;;;0.20;0.20;;;;;;;;;;5034524;28;20121;-78
2023/10/21 09:33:02;;;;;;;0.20;0.20;;;;;;;;;;5032622;28;20516;-78
2023/10/21 09:35:58;;;;;;;0.10;0.10;;;;;;;;;;5033134;28;20032;-78
2023/10/21 09:38:51;;;;;;;0.13;0.13;;;;;;;;;;5032864;28;20029;-79
2023/10/21 09:41:37;;;;;;;0.20;0.20;;;;;;;;;;5037688;28;20040;-79
2023/10/21 09:44:24;;;;;;;0.10;0.10;;;;;;;;;;5030830;28;20091;-79
2023/10/21 09:47:11;;;;;;;0.20;0.20;;;;;;;;;;5032393;28;20569;-78
2023/10/21 09:49:58;;;;;;;0.30;0.30;;;;;;;;;;5033337;28;20040;-79
2023/10/21 09:52:44;;;;;;;0.10;0.10;;;;;;;;;;5036182;28;20033;-79
2023/10/21 09:55:31;;;;;;;0.20;0.20;;;;;;;;;;5034275;28;20037;-79
2023/10/21 09:58:19;;;;;;;0.20;0.20;;;;;;;;;;5030355;28;20032;-79
2023/10/21 10:01:05;;;;;;;0.20;0.20;;;;;;;;;;5027995;28;20032;-79
2023/10/21 10:03:52;;;;;;;0.10;0.10;;;;;;;;;;5032034;28;20033;-79
2023/10/21 10:06:37;;;;;;;0.20;0.20;;;;;;;;;;5034435;28;20089;-79
2023/10/21 10:09:24;;;;;;;0.10;0.10;;;;;;;;;;5033080;28;20036;-79
2023/10/21 10:12:16;;;;;;;0.10;0.10;;;;;;;;;;5033160;28;20067;-79
2023/10/21 10:15:21;;;;;;;0.20;0.20;;;;;;;;;;5023693;28;20128;-79
2023/10/21 10:18:08;;;;;;;0.10;0.10;;;;;;;;;;5012631;28;20033;-79
2023/10/21 10:20:54;;;;;;;0.15;0.15;;;;;;;;;;5014599;28;20077;-79
2023/10/21 10:23:47;;;;;;;0.20;0.20;;;;;;;;;;5008228;28;20132;-79
2023/10/21 10:26:36;;;;;;;0.20;0.20;;;;;;;;;;5010019;28;20037;-78
2023/10/21 10:29:25;;;;;;;0.10;0.10;;;;;;;;;;5011570;28;20541;-79
2023/10/21 10:32:14;;;;;;;0.20;0.20;;;;;;;;;;5011976;28;20033;-78
2023/10/21 10:35:01;;;;;;;0.20;0.20;;;;;;;;;;4981979;28;20468;-78
2023/10/21 10:37:50;;;;;;;0.30;0.30;;;;;;;;;;5009638;28;20057;-79
2023/10/21 10:40:38;;;;;;;0.13;0.13;;;;;;;;;;5012377;28;20603;-79
2023/10/21 10:43:25;;;;;;;0.30;0.30;;;;;;;;;;5015502;28;20424;-79
2023/10/21 10:46:19;;;;;;;0.20;0.20;;;;;;;;;;5014480;28;20040;-79
2023/10/21 10:49:08;;;;;;;0.30;0.30;;;;;;;;;;5015261;28;20029;-79
2023/10/21 10:51:54;;;;;;;0.20;0.20;;;;;;;;;;4997916;28;20052;-79
2023/10/21 10:54:40;;;;;;;0.30;0.30;;;;;;;;;;5014718;28;20033;-80
2023/10/21 10:57:27;;;;;;;0.20;0.20;;;;;;;;;;5014577;28;20041;-80
2023/10/21 11:00:20;;;;;;;0.10;0.10;;;;;;;;;;5022681;28;20111;-80
2023/10/21 11:03:06;;;;;;;0.20;0.20;;;;;;;;;;5008758;28;20029;-80
2023/10/21 11:05:56;;;;;;;0.00;0.00;;;;;;;;;;5019750;28;20511;-80
2023/10/21 11:08:45;;;;;;;0.10;0.10;;;;;;;;;;5017783;28;20036;-80
2023/10/21 11:11:47;;;;;;;0.10;0.10;;;;;;;;;;5020979;28;20029;-81
2023/10/21 11:14:36;;;;;;;0.20;0.20;;;;;;;;;;5028630;28;20049;-79
2023/10/21 11:17:22;;;;;;;0.10;0.10;;;;;;;;;;5038118;28;20044;-80
2023/10/21 11:20:08;;;;;;;0.10;0.10;;;;;;;;;;5039299;28;20144;-80
2023/10/21 11:22:54;;;;;;;0.10;0.10;;;;;;;;;;5043864;28;20045;-80
2023/10/21 11:25:40;;;;;;;0.20;0.20;;;;;;;;;;5027455;28;20048;-80
2023/10/21 11:28:26;;;;;;;0.13;0.13;;;;;;;;;;5044696;28;20044;-79
2023/10/21 11:31:12;;;;;;;0.20;0.20;;;;;;;;;;5041114;28;20404;-80
2023/10/21 11:34:09;;;;;;;0.20;0.20;;;;;;;;;;5014723;28;20128;-80
2023/10/21 11:36:58;;;;;;;0.20;0.20;;;;;;;;;;5035641;28;20037;-80
2023/10/21 11:39:44;;;;;;;0.10;0.10;;;;;;;;;;5033693;28;20794;-79
2023/10/21 11:42:29;;;;;;;0.20;0.20;;;;;;;;;;5042287;28;20116;-80
2023/10/21 11:45:15;;;;;;;0.10;0.10;;;;;;;;;;5040140;28;20037;-80
2023/10/21 11:48:02;;;;;;;0.10;0.10;;;;;;;;;;5039141;28;20051;-81
2023/10/21 11:50:47;;;;;;;0.10;0.10;;;;;;;;;;5039657;28;20082;-82
2023/10/21 11:53:33;;;;;;;0.10;0.10;;;;;;;;;;5038488;28;20083;-81
2023/10/21 12:21:20;;;;;;;0.00;0.00;;;;;;;;;;5039694;28;20657;-80
2023/10/21 12:36:33;;;;;;;0.17;0.17;;;;;;;;;;5036259;28;20037;-80
2023/10/21 12:39:20;;;;;;;0.20;0.20;;;;;;;;;;5040349;28;20029;-80
2023/10/21 12:42:21;;;;;;;0.20;0.20;;;;;;;;;;5027447;28;20036;-80
2023/10/21 12:45:18;;;;;;;0.20;0.20;;;;;;;;;;5042742;28;20060;-81
2023/10/21 12:48:08;;;;;;;0.20;0.20;;;;;;;;;;5042316;28;20088;-81
2023/10/21 12:50:54;;;;;;;0.20;0.20;;;;;;;;;;5042548;28;20382;-81
2023/10/21 12:53:40;;;;;;;0.20;0.20;;;;;;;;;;5041714;28;20049;-80
2023/10/21 12:56:26;;;;;;;0.10;0.10;;;;;;;;;;5039126;28;20514;-81
2023/10/21 12:59:20;;;;;;;0.10;0.10;;;;;;;;;;5046190;28;20041;-82
2023/10/21 13:02:18;;;;;;;0.15;0.15;;;;;;;;;;5039322;28;20045;-83
2023/10/21 13:05:04;;;;;;;0.10;0.10;;;;;;;;;;5043406;28;20497;-81
2023/10/21 13:07:50;;;;;;;0.10;0.10;;;;;;;;;;5043189;28;20033;-81
2023/10/21 13:10:38;;;;;;;0.10;0.10;;;;;;;;;;5040148;28;20042;-81
2023/10/21 13:13:24;;;;;;;0.10;0.10;;;;;;;;;;5044032;28;20182;-81
2023/10/21 13:16:10;;;;;;;0.13;0.13;;;;;;;;;;5038454;28;20087;-81
2023/10/21 13:18:56;;;;;;;0.00;0.00;;;;;;;;;;5041701;28;20091;-81
2023/10/21 13:21:42;;;;;;;0.20;0.20;;;;;;;;;;5037053;28;20043;-80
2023/10/21 13:24:27;;;;;;;0.10;0.10;;;;;;;;;;5036977;28;20060;-81
2023/10/21 13:27:14;;;;;;;0.10;0.10;;;;;;;;;;5041781;28;20543;-81
2023/10/21 13:30:10;;;;;;;0.10;0.10;;;;;;;;;;5043744;28;20069;-82
2023/10/21 13:32:56;;;;;;;0.10;0.10;;;;;;;;;;5040614;28;20649;-81
2023/10/21 13:35:44;;;;;;;0.20;0.20;;;;;;;;;;5011198;28;20120;-80
2023/10/21 13:38:30;;;;;;;0.10;0.10;;;;;;;;;;5042405;28;20249;-81
2023/10/21 13:41:16;;;;;;;0.13;0.13;;;;;;;;;;5037706;28;20511;-81
2023/10/21 13:44:05;;;;;;;0.20;0.20;;;;;;;;;;5042081;28;20426;-80
2023/10/21 13:47:00;;;;;;;0.20;0.20;;;;;;;;;;5040929;28;20032;-81
2023/10/21 13:49:52;;;;;;;0.15;0.15;;;;;;;;;;5040601;28;20052;-81
2023/10/21 13:52:37;;;;;;;0.10;0.10;;;;;;;;;;5043591;28;20454;-81
2023/10/21 13:55:24;;;;;;;0.10;0.10;;;;;;;;;;5042063;28;20111;-81
2023/10/21 13:58:15;;;;;;;0.20;0.20;;;;;;;;;;5040780;28;20108;-81
2023/10/21 14:01:09;;;;;;;0.20;0.20;;;;;;;;;;5044337;28;20123;-80
2023/10/21 14:03:57;;;;;;;0.00;0.00;;;;;;;;;;5039680;28;20060;-80
2023/10/21 14:06:43;;;;;;;0.10;0.10;;;;;;;;;;5027424;28;20407;-80
2023/10/21 14:09:29;;;;;;;0.10;0.10;;;;;;;;;;5045051;28;20036;-79
2023/10/21 14:12:16;;;;;;;0.10;0.10;;;;;;;;;;5038734;28;20102;-79
2023/10/21 14:15:10;;;;;;;0.00;0.00;;;;;;;;;;5041544;28;20164;-80
2023/10/21 14:17:56;;;;;;;0.08;0.08;;;;;;;;;;5046580;28;20044;-80
2023/10/21 14:20:41;;;;;;;0.10;0.10;;;;;;;;;;5039916;28;20037;-80
2023/10/21 14:23:28;;;;;;;0.10;0.10;;;;;;;;;;5040821;28;20025;-79
2023/10/21 14:26:14;;;;;;;0.10;0.10;;;;;;;;;;5046026;28;20020;-79
2023/10/21 14:29:00;;;;;;;0.10;0.10;;;;;;;;;;5039056;28;20156;-79
2023/10/21 14:31:55;;;;;;;0.10;0.10;;;;;;;;;;5004093;28;20068;-80
2023/10/21 14:34:41;;;;;;;0.10;0.10;;;;;;;;;;5002709;28;20492;-79
2023/10/21 14:37:29;;;;;;;0.10;0.10;;;;;;;;;;5035871;28;20044;-80
2023/10/21 14:40:16;;;;;;;0.10;0.10;;;;;;;;;;5037645;28;20117;-81
2023/10/21 14:43:03;;;;;;;0.10;0.10;;;;;;;;;;5040515;28;20036;-80
2023/10/21 14:45:49;;;;;;;0.10;0.10;;;;;;;;;;5040494;28;20035;-81
2023/10/21 14:48:35;;;;;;;0.10;0.10;;;;;;;;;;5040125;28;20040;-81
2023/10/21 14:51:20;;;;;;;0.10;0.10;;;;;;;;;;5027084;28;20040;-80
2023/10/21 14:54:06;;;;;;;0.10;0.10;;;;;;;;;;5042984;28;20123;-81
2023/10/21 14:56:52;;;;;;;0.10;0.10;;;;;;;;;;5038467;28;20041;-80
2023/10/21 14:59:38;;;;;;;0.10;0.10;;;;;;;;;;5036173;28;20037;-81
2023/10/21 15:02:23;;;;;;;0.10;0.10;;;;;;;;;;5033453;28;20033;-80
2023/10/21 15:05:11;;;;;;;0.10;0.10;;;;;;;;;;5037812;28;20528;-80
2023/10/21 15:08:00;;;;;;;0.10;0.10;;;;;;;;;;5038390;28;20083;-80
2023/10/21 15:10:47;;;;;;;0.10;0.10;;;;;;;;;;5037866;28;20040;-80
2023/10/21 15:13:32;;;;;;;0.10;0.10;;;;;;;;;;5038645;28;20041;-80
2023/10/21 15:16:18;;;;;;;0.10;0.10;;;;;;;;;;5035465;28;20080;-80
2023/10/21 15:19:04;;;;;;;0.10;0.10;;;;;;;;;;5038885;28;20043;-80
2023/10/21 15:21:51;;;;;;;0.10;0.10;;;;;;;;;;5040064;28;20048;-80
2023/10/21 15:24:37;;;;;;;0.10;0.10;;;;;;;;;;5040186;28;20049;-80
2023/10/21 15:27:24;;;;;;;0.10;0.10;;;;;;;;;;5040909;28;20034;-80
2023/10/21 15:30:14;;;;;;;0.10;0.10;;;;;;;;;;5033463;28;20029;-80
2023/10/21 15:32:59;;;;;;;0.20;0.20;;;;;;;;;;5025116;28;20052;-80
2023/10/21 15:35:51;;;;;;;0.10;0.10;;;;;;;;;;5042031;28;20040;-79
2023/10/21 15:38:37;;;;;;;0.10;0.10;;;;;;;;;;5043824;28;20416;-81
2023/10/21 15:41:25;;;;;;;0.10;0.10;;;;;;;;;;5041770;28;20399;-81
2023/10/21 15:44:10;;;;;;;0.10;0.10;;;;;;;;;;5043437;28;20035;-81
2023/10/21 15:46:56;;;;;;;0.10;0.10;;;;;;;;;;5042144;28;20116;-81
2023/10/21 15:49:42;;;;;;;0.10;0.10;;;;;;;;;;5043600;28;20036;-80
2023/10/21 15:52:27;;;;;;;0.10;0.10;;;;;;;;;;5045782;28;20116;-80
2023/10/21 15:55:13;;;;;;;0.10;0.10;;;;;;;;;;5043466;28;20037;-81
2023/10/21 15:57:59;;;;;;;0.10;0.10;;;;;;;;;;5046703;28;20124;-80
2023/10/21 16:00:44;;;;;;;0.10;0.10;;;;;;;;;;5039048;28;20567;-80
2023/10/21 16:03:30;;;;;;;0.10;0.10;;;;;;;;;;5029509;28;20589;-80
2023/10/21 16:06:16;;;;;;;0.10;0.10;;;;;;;;;;5042772;28;20033;-80
2023/10/21 16:09:02;;;;;;;0.10;0.10;;;;;;;;;;5041522;28;20033;-78
2023/10/21 16:11:48;;;;;;;0.10;0.10;;;;;;;;;;5043055;28;20033;-78
2023/10/21 16:14:38;;;;;;;0.10;0.10;;;;;;;;;;5041588;28;20057;-77
2023/10/21 16:17:24;;;;;;;0.10;0.10;;;;;;;;;;5043456;28;20029;-80
2023/10/21 16:20:10;;;;;;;0.10;0.10;;;;;;;;;;5044267;28;20036;-80
2023/10/21 16:22:55;;;;;;;0.10;0.10;;;;;;;;;;5043435;28;20071;-80
2023/10/21 16:25:41;;;;;;;0.00;0.00;;;;;;;;;;5031721;28;20543;-80
2023/10/21 16:28:27;;;;;;;0.20;0.20;;;;;;;;;;5036342;28;20108;-80
2023/10/21 16:31:13;;;;;;;0.10;0.10;;;;;;;;;;5031488;28;20091;-80
2023/10/21 16:33:59;;;;;;;0.10;0.10;;;;;;;;;;5030411;28;20098;-80
2023/10/21 16:36:44;;;;;;;0.10;0.10;;;;;;;;;;5032807;28;20039;-80
2023/10/21 16:39:33;;;;;;;0.10;0.10;;;;;;;;;;5032625;28;20048;-79
2023/10/21 16:42:18;;;;;;;0.10;0.10;;;;;;;;;;5032028;28;20105;-79
2023/10/21 16:45:05;;;;;;;0.10;0.10;;;;;;;;;;5030646;28;20046;-79
2023/10/21 16:47:50;;;;;;;0.10;0.10;;;;;;;;;;5032564;28;20040;-79
2023/10/21 16:50:36;;;;;;;0.08;0.08;;;;;;;;;;5033184;28;20267;-79
2023/10/21 16:53:22;;;;;;;0.10;0.10;;;;;;;;;;5030485;28;20037;-79
2023/10/21 16:56:11;;;;;;;0.10;0.10;;;;;;;;;;5030904;28;20132;-79
2023/10/21 16:58:57;;;;;;;0.10;0.10;;;;;;;;;;5031577;28;20060;-80
2023/10/21 17:01:42;;;;;;;0.10;0.10;;;;;;;;;;5031550;28;20037;-79
2023/10/21 17:04:28;;;;;;;0.10;0.10;;;;;;;;;;5031857;28;20032;-79
2023/10/21 17:07:14;;;;;;;0.10;0.10;;;;;;;;;;5033872;28;20033;-79
2023/10/21 17:09:59;;;;;;;0.10;0.10;;;;;;;;;;5033668;28;20335;-79
2023/10/21 17:12:45;;;;;;;0.10;0.10;;;;;;;;;;5032479;28;20069;-79
2023/10/21 17:15:31;;;;;;;0.10;0.10;;;;;;;;;;5030161;28;20500;-79
2023/10/21 17:18:17;;;;;;;0.00;0.00;;;;;;;;;;5031362;28;20036;-79